Terminal Aerodrome Forecast
Issued by NWS Jackson, MS

Home | Current Version | Previous Version | Text Only | Print | Product List | Glossary On
Versions: 1 2 3 4 5 6 7 8 9 10 11 12 13 14 15
000
FTUS44 KJAN 241200 AAA
TAFGLH
TAF AMD
KGLH 241220Z 2412/2512 29016G22KT P6SM OVC030
     FM241330 30017G24KT P6SM SKC
     FM242300 28005KT P6SM SKC=

USA.gov is the U.S. government's official web portal to all federal, state and local government web resources and services.